Time;durP1;ratioP1;P1;durP2;ratioP2;P2;SDS_P1;SDS_P2;PMS_P1;PMS_P2;Temp;Humidity;BMP_temperature;BMP_pressure;BME280_temperature;BME280_humidity;BME280_pressure;Samples;Min_cycle;Max_cycle;Signal;HPM_P1;HPM_P2
2021/06/16 04:00:48;;;;;;;6.07;5.47;;;13.30;99.90;;;;;;5714399;23;20237;-68
2021/06/16 04:03:15;;;;;;;5.72;5.28;;;13.30;99.90;;;;;;4935611;29;20273;-68
2021/06/16 04:05:43;;;;;;;5.95;5.40;;;13.40;99.90;;;;;;4930655;29;20282;-68
2021/06/16 04:08:12;;;;;;;5.30;5.00;;;13.40;99.90;;;;;;4916403;29;20254;-71
2021/06/16 04:10:39;;;;;;;11.82;6.00;;;13.40;99.90;;;;;;4916908;29;20231;-69
2021/06/16 04:13:07;;;;;;;4.90;4.68;;;13.50;99.90;;;;;;4916620;29;20261;-70
2021/06/16 04:15:34;;;;;;;6.20;5.80;;;13.50;99.90;;;;;;4917051;29;20233;-70
2021/06/16 04:18:02;;;;;;;6.10;5.70;;;13.60;99.90;;;;;;4916740;29;20218;-70
2021/06/16 04:20:30;;;;;;;8.05;5.50;;;13.70;99.90;;;;;;4916526;29;20230;-70
2021/06/16 04:22:57;;;;;;;5.77;5.27;;;14.00;99.90;;;;;;4915568;29;20214;-70
2021/06/16 04:25:24;;;;;;;4.83;4.53;;;14.70;99.90;;;;;;4916504;29;20471;-70
2021/06/16 04:27:51;;;;;;;3.87;3.67;;;15.70;99.90;;;;;;4916696;29;20799;-71
2021/06/16 04:30:20;;;;;;;4.23;3.93;;;16.50;99.90;;;;;;4916673;29;20494;-70
2021/06/16 04:32:46;;;;;;;4.50;4.30;;;17.40;99.90;;;;;;4916209;29;20479;-70
2021/06/16 04:35:14;;;;;;;3.93;3.73;;;18.20;99.90;;;;;;4916673;29;20462;-70
2021/06/16 04:37:41;;;;;;;4.30;3.90;;;19.00;99.90;;;;;;4915595;29;20505;-70
2021/06/16 04:40:10;;;;;;;5.03;4.60;;;19.50;99.90;;;;;;4916171;29;20489;-68
2021/06/16 04:42:37;;;;;;;4.70;4.40;;;20.20;99.90;;;;;;4915779;29;20841;-68
2021/06/16 04:45:04;;;;;;;5.57;5.07;;;20.60;99.90;;;;;;4916401;29;20462;-69
2021/06/16 04:47:31;;;;;;;4.83;4.70;;;21.10;99.90;;;;;;4915875;29;20467;-69
2021/06/16 04:49:58;;;;;;;5.53;5.10;;;21.50;99.90;;;;;;4916057;29;20983;-68
2021/06/16 04:52:26;;;;;;;4.60;4.30;;;22.00;99.90;;;;;;4914629;29;20499;-66
2021/06/16 04:54:53;;;;;;;4.87;4.57;;;22.40;99.90;;;;;;4918259;29;20472;-67
2021/06/16 04:57:20;;;;;;;4.47;4.27;;;22.80;99.90;;;;;;4934565;29;20468;-66
2021/06/16 04:59:47;;;;;;;4.40;4.00;;;23.20;99.90;;;;;;4938270;28;20477;-66
2021/06/16 05:02:15;;;;;;;4.03;3.80;;;23.60;99.90;;;;;;4938179;29;20507;-68
2021/06/16 05:04:42;;;;;;;4.20;3.93;;;23.80;99.90;;;;;;4937988;29;20465;-68
2021/06/16 05:07:09;;;;;;;3.53;3.30;;;23.80;99.90;;;;;;4939522;29;20477;-68
2021/06/16 05:09:37;;;;;;;3.30;3.10;;;24.00;99.90;;;;;;4937697;29;20503;-68
2021/06/16 05:12:04;;;;;;;3.20;3.00;;;23.90;98.30;;;;;;4938442;29;20492;-69
2021/06/16 05:14:31;;;;;;;2.60;2.50;;;23.80;98.80;;;;;;4937712;29;20475;-67
2021/06/16 05:16:58;;;;;;;3.17;2.87;;;23.90;98.10;;;;;;4935052;29;20483;-67
2021/06/16 05:19:24;;;;;;;3.67;2.90;;;23.90;97.80;;;;;;4935407;29;20464;-67
2021/06/16 05:21:52;;;;;;;2.00;1.90;;;24.00;97.80;;;;;;4934418;29;20507;-68
2021/06/16 05:24:19;;;;;;;2.80;2.30;;;24.10;97.10;;;;;;4934758;29;20468;-67
2021/06/16 05:26:47;;;;;;;2.80;2.60;;;24.30;96.80;;;;;;4934917;29;20576;-68
2021/06/16 05:29:14;;;;;;;2.07;1.97;;;24.30;96.20;;;;;;4934833;29;21024;-68
2021/06/16 05:31:41;;;;;;;1.83;1.70;;;24.50;96.30;;;;;;4934527;29;20495;-67
2021/06/16 05:34:07;;;;;;;2.20;2.10;;;24.80;95.40;;;;;;4934512;28;20479;-67
2021/06/16 05:36:35;;;;;;;3.17;1.83;;;25.00;94.90;;;;;;4934030;29;20467;-67
2021/06/16 05:39:02;;;;;;;2.10;2.00;;;25.00;95.00;;;;;;4934814;29;20465;-67
2021/06/16 05:41:29;;;;;;;1.93;1.83;;;25.30;94.50;;;;;;4934389;29;20498;-67
2021/06/16 05:43:57;;;;;;;1.50;1.50;;;25.30;94.00;;;;;;4934649;29;20831;-67
2021/06/16 05:46:24;;;;;;;1.83;1.47;;;25.00;94.00;;;;;;4934701;29;20463;-68
2021/06/16 05:48:50;;;;;;;2.53;1.93;;;25.20;94.10;;;;;;4934574;29;20496;-67
2021/06/16 05:51:17;;;;;;;2.50;1.87;;;25.30;94.20;;;;;;4995097;23;20506;-67
2021/06/16 05:56:58;;;;;;;2.10;1.90;;;25.70;93.20;;;;;;4987300;28;20455;-67
2021/06/16 05:59:26;;;;;;;1.80;1.80;;;25.50;93.60;;;;;;4973170;28;20507;-67
2021/06/16 06:01:52;;;;;;;2.10;2.00;;;25.60;93.30;;;;;;4959778;28;20838;-68
2021/06/16 06:04:19;;;;;;;1.90;1.83;;;25.70;93.60;;;;;;4962797;28;20452;-69
2021/06/16 06:06:46;;;;;;;1.97;1.87;;;26.00;93.50;;;;;;4954584;28;20465;-66
2021/06/16 06:09:12;;;;;;;2.00;1.90;;;26.60;91.70;;;;;;4957176;28;20493;-67
2021/06/16 06:11:39;;;;;;;2.13;2.03;;;26.70;91.70;;;;;;4956595;28;20495;-66
2021/06/16 06:14:07;;;;;;;1.50;1.47;;;26.50;92.10;;;;;;4956764;28;20467;-67
2021/06/16 06:16:35;;;;;;;1.77;1.77;;;26.60;91.70;;;;;;4949991;28;20537;-67
2021/06/16 06:19:02;;;;;;;1.83;1.83;;;27.00;90.90;;;;;;4956512;28;20474;-67
2021/06/16 06:21:31;;;;;;;2.57;2.27;;;26.80;90.70;;;;;;4955919;28;20490;-67
2021/06/16 06:23:59;;;;;;;1.60;1.50;;;26.40;90.80;;;;;;4956623;29;20479;-69
2021/06/16 06:26:25;;;;;;;2.20;2.10;;;26.50;90.90;;;;;;4956554;28;20921;-69
2021/06/16 06:28:52;;;;;;;2.00;1.90;;;26.20;91.90;;;;;;4956732;28;20494;-69
2021/06/16 06:31:19;;;;;;;1.87;1.77;;;26.60;91.40;;;;;;4956467;28;20519;-69
2021/06/16 06:33:47;;;;;;;2.13;2.00;;;26.50;90.80;;;;;;4956705;28;20462;-69
2021/06/16 06:36:14;;;;;;;2.20;2.10;;;26.40;91.60;;;;;;4955595;28;20469;-69
2021/06/16 06:38:40;;;;;;;2.17;1.90;;;26.70;90.90;;;;;;4956497;28;20470;-69
2021/06/16 06:41:07;;;;;;;2.07;1.97;;;26.70;90.60;;;;;;4956453;28;20493;-69
2021/06/16 06:43:34;;;;;;;1.80;1.80;;;27.00;90.90;;;;;;4956419;28;20471;-69
2021/06/16 06:46:00;;;;;;;2.57;2.20;;;26.70;90.40;;;;;;4956142;28;20973;-68
2021/06/16 06:48:27;;;;;;;2.63;2.03;;;27.10;90.20;;;;;;4956643;28;20466;-69
2021/06/16 06:50:55;;;;;;;2.63;2.43;;;27.30;90.90;;;;;;4955114;28;20506;-69
2021/06/16 06:53:22;;;;;;;2.27;1.80;;;27.70;90.00;;;;;;4956017;28;20472;-68
2021/06/16 06:55:49;;;;;;;1.97;1.97;;;28.00;90.00;;;;;;4946227;28;20630;-69
2021/06/16 06:58:16;;;;;;;1.70;1.70;;;28.20;88.60;;;;;;4937037;29;20468;-69
2021/06/16 07:00:42;;;;;;;2.10;2.00;;;28.40;88.70;;;;;;4936715;29;20494;-68
2021/06/16 07:03:09;;;;;;;2.27;2.17;;;28.50;87.50;;;;;;4936520;29;20473;-69
2021/06/16 07:05:36;;;;;;;2.40;2.20;;;28.50;86.90;;;;;;4936933;29;20480;-69
2021/06/16 07:08:04;;;;;;;2.33;1.90;;;28.30;87.70;;;;;;4935641;29;20465;-69
2021/06/16 07:10:31;;;;;;;2.10;1.90;;;28.50;87.00;;;;;;4936498;29;21004;-69
2021/06/16 07:12:58;;;;;;;1.60;1.60;;;28.60;85.90;;;;;;4936360;29;20492;-69
2021/06/16 07:15:25;;;;;;;1.80;1.80;;;29.10;85.10;;;;;;4936576;29;20469;-69
2021/06/16 07:17:51;;;;;;;2.00;2.00;;;29.60;83.70;;;;;;4935328;29;21009;-69
2021/06/16 07:20:18;;;;;;;1.80;1.70;;;29.60;81.80;;;;;;4936074;29;20572;-69
2021/06/16 07:22:46;;;;;;;2.10;2.00;;;29.70;82.10;;;;;;4935539;29;20476;-68
2021/06/16 07:25:15;;;;;;;2.17;2.07;;;29.50;81.10;;;;;;4936828;29;20464;-69
2021/06/16 07:27:42;;;;;;;2.27;2.27;;;29.30;82.00;;;;;;4944721;28;20483;-69
2021/06/16 07:30:11;;;;;;;2.23;2.23;;;29.10;82.50;;;;;;4955756;28;20841;-68
2021/06/16 07:32:38;;;;;;;2.43;2.23;;;28.70;84.50;;;;;;4955408;28;20838;-69
2021/06/16 07:35:06;;;;;;;2.20;2.10;;;28.60;84.00;;;;;;4955452;28;20476;-68
2021/06/16 07:37:33;;;;;;;2.53;2.50;;;28.70;83.60;;;;;;4954548;28;20464;-68
2021/06/16 07:39:59;;;;;;;2.57;2.47;;;28.80;83.70;;;;;;4955840;28;20479;-69
2021/06/16 07:42:27;;;;;;;2.10;2.10;;;29.00;83.40;;;;;;4954694;28;20492;-68
2021/06/16 07:44:54;;;;;;;2.43;2.30;;;28.90;81.40;;;;;;4955214;28;20478;-69
2021/06/16 07:47:21;;;;;;;2.33;2.17;;;28.60;82.90;;;;;;4954962;28;20755;-68
2021/06/16 07:49:47;;;;;;;2.33;2.30;;;28.40;83.40;;;;;;4955495;28;20797;-69
2021/06/16 07:52:14;;;;;;;2.30;2.20;;;28.50;84.30;;;;;;4953942;28;20500;-68
2021/06/16 07:54:41;;;;;;;2.00;1.90;;;28.50;83.70;;;;;;4955557;28;20475;-69
2021/06/16 07:57:07;;;;;;;4.73;4.37;;;28.70;84.40;;;;;;4954923;28;20781;-69
2021/06/16 07:59:35;;;;;;;1.70;1.70;;;28.60;82.60;;;;;;4956447;28;20473;-70
2021/06/16 08:02:04;;;;;;;2.00;2.00;;;28.60;82.20;;;;;;4955375;28;20491;-69
2021/06/16 08:04:32;;;;;;;2.47;2.07;;;28.50;82.60;;;;;;4955190;28;20464;-70
2021/06/16 08:06:58;;;;;;;2.10;2.10;;;28.80;80.70;;;;;;4953996;28;20467;-69
2021/06/16 08:09:25;;;;;;;1.90;1.90;;;28.80;80.00;;;;;;4954735;28;20983;-69
2021/06/16 08:11:52;;;;;;;2.77;2.47;;;28.40;80.60;;;;;;4954734;28;20491;-69
2021/06/16 08:14:18;;;;;;;4.30;2.20;;;28.30;82.00;;;;;;4954701;28;20881;-68
2021/06/16 08:16:47;;;;;;;2.30;2.13;;;28.40;80.40;;;;;;4946513;28;20469;-68
2021/06/16 08:19:13;;;;;;;2.33;2.23;;;28.60;80.40;;;;;;4954612;28;20480;-69
2021/06/16 08:21:40;;;;;;;2.50;2.40;;;28.70;81.20;;;;;;4954080;28;20492;-69
2021/06/16 08:24:08;;;;;;;3.53;3.20;;;28.50;78.60;;;;;;4954618;28;20462;-66
2021/06/16 08:26:35;;;;;;;2.97;2.87;;;28.30;80.60;;;;;;4954147;28;20944;-66
2021/06/16 08:29:01;;;;;;;2.30;2.20;;;28.30;81.10;;;;;;4955968;28;20464;-67
2021/06/16 08:31:28;;;;;;;2.40;2.40;;;28.00;83.30;;;;;;4959254;28;20607;-67
2021/06/16 08:33:56;;;;;;;2.77;2.50;;;28.10;81.20;;;;;;4955153;28;20473;-67
2021/06/16 08:36:24;;;;;;;2.63;2.53;;;28.20;81.80;;;;;;4953946;28;20476;-67
2021/06/16 08:38:50;;;;;;;2.60;2.57;;;28.10;80.30;;;;;;4954501;28;20469;-67
2021/06/16 08:41:18;;;;;;;2.90;2.80;;;27.70;82.20;;;;;;4954039;28;20484;-67
2021/06/16 08:43:47;;;;;;;3.17;3.07;;;27.70;83.70;;;;;;4954034;28;20473;-67
2021/06/16 08:46:15;;;;;;;3.63;3.50;;;27.90;83.30;;;;;;4954272;28;20530;-68
2021/06/16 08:48:44;;;;;;;2.27;2.27;;;28.20;83.70;;;;;;4954598;28;20583;-68
2021/06/16 08:51:15;;;;;;;2.37;2.27;;;28.20;81.10;;;;;;4953067;28;20530;-67
2021/06/16 08:53:43;;;;;;;2.50;2.50;;;28.00;80.40;;;;;;4954288;28;20470;-67
2021/06/16 08:56:10;;;;;;;2.80;2.60;;;28.10;81.30;;;;;;4941263;28;20473;-67
2021/06/16 08:58:37;;;;;;;2.73;2.60;;;28.10;78.90;;;;;;4935438;29;20475;-68
2021/06/16 09:01:05;;;;;;;2.70;2.50;;;27.80;79.60;;;;;;4934540;29;20496;-67
2021/06/16 09:03:32;;;;;;;2.53;2.53;;;27.70;79.50;;;;;;4934836;29;20474;-67
2021/06/16 09:06:05;;;;;;;2.47;2.37;;;27.50;80.10;;;;;;4933770;29;20471;-67
2021/06/16 09:08:49;;;;;;;2.97;2.70;;;27.50;79.00;;;;;;4935076;29;20503;-67
2021/06/16 09:11:16;;;;;;;3.10;2.77;;;27.50;79.60;;;;;;4934716;29;20505;-68
2021/06/16 09:13:42;;;;;;;2.77;2.67;;;27.90;80.00;;;;;;4934995;28;20484;-67
2021/06/16 09:16:25;;;;;;;2.60;2.60;;;27.70;79.00;;;;;;4935529;29;20496;-68
2021/06/16 09:18:52;;;;;;;2.73;2.73;;;27.60;79.00;;;;;;4935523;29;20662;-68
2021/06/16 09:21:32;;;;;;;2.63;2.63;;;27.40;81.00;;;;;;4933934;29;20491;-67
2021/06/16 09:24:00;;;;;;;2.90;2.80;;;27.70;77.80;;;;;;4934952;28;20465;-67
2021/06/16 09:26:31;;;;;;;3.03;2.93;;;27.80;79.00;;;;;;4934639;29;20463;-67
2021/06/16 09:28:58;;;;;;;3.67;3.57;;;27.60;80.60;;;;;;4953982;29;20663;-68
2021/06/16 09:31:25;;;;;;;3.53;3.33;;;27.60;81.90;;;;;;4953818;28;20499;-67
2021/06/16 09:33:54;;;;;;;3.83;3.53;;;27.60;80.70;;;;;;4953950;28;20476;-67
2021/06/16 09:36:23;;;;;;;2.83;2.83;;;27.50;78.80;;;;;;4953476;28;20576;-67
2021/06/16 09:38:51;;;;;;;3.40;3.30;;;27.40;79.40;;;;;;4954336;28;20766;-67
2021/06/16 09:41:21;;;;;;;3.77;3.63;;;27.20;78.80;;;;;;4954033;28;20485;-67
2021/06/16 09:43:49;;;;;;;3.43;3.33;;;27.10;79.70;;;;;;4958023;28;20467;-67
2021/06/16 09:46:16;;;;;;;4.03;3.93;;;27.10;80.30;;;;;;4958330;28;20515;-66
2021/06/16 09:48:44;;;;;;;4.30;4.10;;;26.90;82.80;;;;;;4958610;28;20475;-66
2021/06/16 09:51:22;;;;;;;3.60;3.50;;;26.80;84.90;;;;;;4956488;28;20813;-68
2021/06/16 09:54:01;;;;;;;4.87;4.53;;;26.90;85.70;;;;;;4957499;28;20467;-68
2021/06/16 09:56:32;;;;;;;4.70;4.50;;;26.80;85.90;;;;;;4957179;28;20571;-69
2021/06/16 09:58:59;;;;;;;4.33;4.20;;;26.70;85.70;;;;;;4957995;28;20488;-70
2021/06/16 10:01:44;;;;;;;4.30;4.20;;;26.60;86.40;;;;;;4957621;28;20485;-69
2021/06/16 10:04:11;;;;;;;4.73;3.70;;;26.80;85.90;;;;;;4957779;28;20496;-69
2021/06/16 10:06:38;;;;;;;4.17;3.90;;;26.90;86.80;;;;;;4958322;28;20469;-69
2021/06/16 10:09:08;;;;;;;4.00;3.43;;;26.80;83.90;;;;;;4958010;28;20497;-69
2021/06/16 10:11:36;;;;;;;4.50;4.30;;;26.70;84.10;;;;;;4957361;28;20593;-69
2021/06/16 10:14:03;;;;;;;4.03;3.83;;;26.60;83.70;;;;;;4957688;28;20449;-69
2021/06/16 10:16:30;;;;;;;5.10;4.73;;;26.40;85.80;;;;;;4951340;28;20463;-69
2021/06/16 10:18:57;;;;;;;5.23;4.87;;;26.60;88.80;;;;;;4956260;29;20465;-69
2021/06/16 10:21:24;;;;;;;4.67;4.47;;;26.80;88.80;;;;;;4955887;28;20487;-68
2021/06/16 10:23:51;;;;;;;4.20;4.10;;;26.70;87.20;;;;;;4956977;28;20461;-68
2021/06/16 10:26:26;;;;;;;4.30;4.20;;;26.50;87.20;;;;;;4957289;28;20940;-68
2021/06/16 10:28:58;;;;;;;4.83;4.60;;;26.50;88.30;;;;;;4957082;28;20460;-69
2021/06/16 10:31:34;;;;;;;5.40;5.00;;;26.50;88.60;;;;;;4956593;28;20841;-69
2021/06/16 10:34:01;;;;;;;4.30;4.10;;;26.70;89.70;;;;;;4956529;28;20475;-68
2021/06/16 10:36:28;;;;;;;3.90;3.70;;;26.80;88.30;;;;;;4955972;28;20476;-68
2021/06/16 10:39:22;;;;;;;4.20;4.10;;;26.90;87.20;;;;;;4957351;28;20886;-68
2021/06/16 10:41:56;;;;;;;4.30;4.07;;;26.90;85.70;;;;;;4933630;28;20484;-68
2021/06/16 10:44:26;;;;;;;4.77;4.63;;;26.90;85.80;;;;;;4956371;28;20468;-69
2021/06/16 10:46:55;;;;;;;4.27;3.97;;;26.90;84.90;;;;;;4956881;28;20492;-69
2021/06/16 10:49:54;;;;;;;5.00;4.80;;;26.70;86.30;;;;;;4957209;28;20461;-68
2021/06/16 10:52:27;;;;;;;5.50;5.23;;;26.70;88.70;;;;;;4955452;28;20496;-68
2021/06/16 10:54:55;;;;;;;5.00;4.60;;;26.60;89.90;;;;;;4954267;28;20471;-68
2021/06/16 10:57:22;;;;;;;4.97;4.67;;;26.70;90.50;;;;;;4937893;29;20469;-68
2021/06/16 11:00:10;;;;;;;5.20;4.90;;;26.70;90.30;;;;;;4937210;29;20556;-66
2021/06/16 11:03:01;;;;;;;4.57;4.37;;;26.60;89.60;;;;;;4937145;29;20468;-66
2021/06/16 11:05:33;;;;;;;5.17;4.87;;;26.80;90.40;;;;;;4936911;29;20469;-66
2021/06/16 11:08:02;;;;;;;4.27;4.17;;;26.90;90.10;;;;;;4936552;28;20478;-70
2021/06/16 11:10:54;;;;;;;5.50;5.00;;;26.80;90.00;;;;;;4938594;29;20600;-69
2021/06/16 11:13:40;;;;;;;4.90;4.70;;;26.80;90.70;;;;;;4937224;29;20913;-69
2021/06/16 11:16:51;;;;;;;5.50;5.10;;;27.00;91.10;;;;;;4937033;29;20752;-70
2021/06/16 11:19:27;;;;;;;4.87;4.77;;;27.10;91.00;;;;;;4936727;28;20477;-69
2021/06/16 11:21:57;;;;;;;5.30;4.90;;;27.30;90.10;;;;;;4935662;29;20485;-69
2021/06/16 11:25:03;;;;;;;5.00;4.80;;;27.30;90.10;;;;;;4936947;29;20840;-71
2021/06/16 11:27:58;;;;;;;5.27;4.87;;;27.40;88.40;;;;;;4943266;29;20468;-69
2021/06/16 11:30:36;;;;;;;5.10;4.90;;;27.30;90.10;;;;;;4955738;28;21019;-70
2021/06/16 11:33:31;;;;;;;5.77;5.27;;;27.30;90.70;;;;;;4956037;28;20500;-69
2021/06/16 11:36:01;;;;;;;5.07;4.87;;;27.30;90.50;;;;;;4954694;28;20969;-68
2021/06/16 11:38:32;;;;;;;5.30;5.00;;;27.30;90.60;;;;;;4955689;28;20470;-68
2021/06/16 11:41:01;;;;;;;5.17;4.77;;;27.20;90.50;;;;;;4955058;28;20495;-68
2021/06/16 11:43:30;;;;;;;5.27;4.97;;;27.10;90.40;;;;;;4955490;28;20561;-68
2021/06/16 11:45:57;;;;;;;5.20;4.70;;;27.30;90.80;;;;;;4956866;28;20800;-69
2021/06/16 11:48:23;;;;;;;5.87;5.57;;;27.50;91.00;;;;;;4956060;28;20485;-68
2021/06/16 11:50:50;;;;;;;5.10;4.80;;;27.60;91.30;;;;;;4954314;28;20996;-68
2021/06/16 11:53:27;;;;;;;4.50;4.40;;;27.70;91.50;;;;;;4954990;28;20995;-68
2021/06/16 11:55:54;;;;;;;5.60;5.20;;;27.80;90.50;;;;;;4955316;28;20528;-68
2021/06/16 11:58:22;;;;;;;5.10;5.00;;;27.90;91.00;;;;;;4955398;28;20471;-68
2021/06/16 12:00:50;;;;;;;5.43;5.23;;;27.90;90.70;;;;;;4954857;28;20495;-68
2021/06/16 12:03:17;;;;;;;4.80;4.60;;;27.70;90.60;;;;;;4955314;28;20468;-68
2021/06/16 12:05:44;;;;;;;5.70;5.43;;;27.70;91.30;;;;;;4953777;28;20475;-68
2021/06/16 12:08:11;;;;;;;4.70;4.60;;;27.80;91.10;;;;;;4954712;28;20477;-69
2021/06/16 12:10:39;;;;;;;5.30;5.10;;;27.90;91.10;;;;;;4955085;28;20486;-69
2021/06/16 12:13:07;;;;;;;4.80;4.60;;;28.00;90.90;;;;;;4954782;28;20824;-69
2021/06/16 12:15:35;;;;;;;5.27;5.07;;;28.10;90.70;;;;;;4954912;28;20975;-69
2021/06/16 12:18:03;;;;;;;5.00;4.70;;;28.20;90.20;;;;;;4947906;28;20465;-69
2021/06/16 12:20:32;;;;;;;5.23;4.83;;;28.30;90.10;;;;;;4954687;28;20486;-69
2021/06/16 12:23:00;;;;;;;4.90;4.70;;;28.20;90.10;;;;;;4953568;28;20943;-69
2021/06/16 12:25:29;;;;;;;5.00;4.80;;;28.30;90.30;;;;;;4954841;28;20466;-69
2021/06/16 12:27:58;;;;;;;4.90;4.80;;;28.30;90.10;;;;;;4954723;28;20462;-69
2021/06/16 12:30:26;;;;;;;5.03;4.80;;;28.40;89.80;;;;;;4954607;28;20486;-69
2021/06/16 12:33:19;;;;;;;5.43;5.03;;;28.30;90.00;;;;;;4954459;28;20482;-68
2021/06/16 12:35:58;;;;;;;5.30;5.20;;;28.20;90.00;;;;;;4954091;28;20573;-68
2021/06/16 12:38:40;;;;;;;5.00;4.90;;;28.40;89.60;;;;;;4954448;28;20480;-67
2021/06/16 12:41:22;;;;;;;5.07;4.93;;;28.50;90.60;;;;;;4953822;28;20485;-67
2021/06/16 12:43:50;;;;;;;5.60;5.20;;;28.70;89.40;;;;;;4954371;28;20827;-67
2021/06/16 12:46:17;;;;;;;6.03;5.53;;;28.70;89.40;;;;;;4954067;28;20501;-67
2021/06/16 12:48:44;;;;;;;5.87;5.40;;;28.60;89.90;;;;;;4954077;28;20465;-67
2021/06/16 12:51:11;;;;;;;5.50;5.30;;;28.60;89.60;;;;;;4952955;28;20873;-67
2021/06/16 12:53:39;;;;;;;5.90;5.60;;;28.70;89.00;;;;;;4954443;28;20484;-68
2021/06/16 12:56:07;;;;;;;6.60;6.10;;;28.80;89.60;;;;;;4942020;28;20473;-68
2021/06/16 12:58:46;;;;;;;5.30;5.10;;;28.80;88.50;;;;;;4935282;28;20506;-67
2021/06/16 13:01:19;;;;;;;5.53;5.33;;;28.80;88.80;;;;;;4934714;29;20486;-67
2021/06/16 13:03:48;;;;;;;6.20;5.83;;;28.70;90.00;;;;;;4934753;29;20836;-67
2021/06/16 13:06:15;;;;;;;5.80;5.60;;;28.60;90.00;;;;;;4934219;29;20573;-68
2021/06/16 13:08:43;;;;;;;6.50;6.20;;;28.50;89.00;;;;;;4935359;28;20485;-67
2021/06/16 13:11:22;;;;;;;5.63;5.40;;;28.50;89.40;;;;;;4934694;29;20498;-67
2021/06/16 13:13:50;;;;;;;6.23;6.00;;;28.40;89.50;;;;;;4934760;29;20834;-67
2021/06/16 13:16:26;;;;;;;7.07;6.57;;;28.20;90.40;;;;;;4936566;29;20492;-67
2021/06/16 13:18:53;;;;;;;5.67;5.47;;;28.40;90.60;;;;;;4938426;29;20482;-67
2021/06/16 13:21:20;;;;;;;6.57;6.17;;;28.60;90.20;;;;;;4937612;29;20679;-67
2021/06/16 13:23:52;;;;;;;5.73;5.43;;;28.70;90.20;;;;;;4938619;29;20477;-67
2021/06/16 13:26:20;;;;;;;5.77;5.57;;;28.60;89.80;;;;;;4938747;29;20463;-67
2021/06/16 13:28:57;;;;;;;6.13;5.83;;;28.60;89.70;;;;;;4955029;29;20465;-67
2021/06/16 13:31:25;;;;;;;6.83;6.40;;;28.60;89.60;;;;;;4957038;28;20596;-68
2021/06/16 13:33:54;;;;;;;6.83;6.53;;;28.60;90.30;;;;;;4957598;28;20466;-66
2021/06/16 13:36:22;;;;;;;6.40;6.20;;;28.60;90.30;;;;;;4957024;28;20573;-67
2021/06/16 13:38:52;;;;;;;6.60;6.30;;;28.50;90.50;;;;;;4957586;28;20495;-66
2021/06/16 13:41:20;;;;;;;6.53;6.23;;;28.60;90.20;;;;;;4957304;28;20489;-66
2021/06/16 13:43:48;;;;;;;6.40;6.20;;;28.70;89.60;;;;;;4957214;28;20477;-66
2021/06/16 13:46:14;;;;;;;6.70;6.23;;;28.70;90.40;;;;;;4957076;28;20469;-67
2021/06/16 13:48:43;;;;;;;6.80;6.40;;;28.60;90.60;;;;;;4957379;28;20452;-67
2021/06/16 13:51:10;;;;;;;6.57;6.27;;;28.50;91.00;;;;;;4956305;28;20496;-67
2021/06/16 13:53:37;;;;;;;6.93;6.70;;;28.50;91.10;;;;;;4957329;28;20466;-67
2021/06/16 13:56:04;;;;;;;6.43;6.17;;;28.80;90.50;;;;;;4957117;28;20469;-67
2021/06/16 13:58:32;;;;;;;7.77;7.40;;;29.00;90.40;;;;;;4957797;28;21135;-67
2021/06/16 14:00:59;;;;;;;7.10;6.70;;;29.00;90.10;;;;;;4956892;28;20496;-67
2021/06/16 14:03:26;;;;;;;6.50;6.10;;;29.00;90.20;;;;;;4956979;28;20623;-67
2021/06/16 14:05:54;;;;;;;7.30;7.00;;;29.10;90.60;;;;;;4956241;28;20472;-67
2021/06/16 14:08:21;;;;;;;7.20;6.60;;;29.10;90.30;;;;;;4956857;28;20473;-66
2021/06/16 14:10:48;;;;;;;6.17;5.97;;;29.20;90.20;;;;;;4956451;28;21041;-67
2021/06/16 14:13:15;;;;;;;6.20;6.00;;;29.30;89.50;;;;;;4956562;28;21002;-67
2021/06/16 14:15:41;;;;;;;6.50;6.20;;;29.10;89.30;;;;;;4956625;28;20466;-67
2021/06/16 14:18:08;;;;;;;7.30;6.97;;;28.80;90.10;;;;;;4956937;28;20469;-67
2021/06/16 14:20:36;;;;;;;6.90;6.60;;;28.70;90.40;;;;;;4956780;28;20976;-67
2021/06/16 14:23:04;;;;;;;7.60;7.20;;;28.80;90.60;;;;;;4955913;28;20461;-66
2021/06/16 14:25:31;;;;;;;6.80;6.50;;;28.90;90.80;;;;;;4956791;28;20988;-67
2021/06/16 14:27:58;;;;;;;6.97;6.60;;;29.10;90.70;;;;;;4956268;28;20473;-67
2021/06/16 14:30:25;;;;;;;5.77;5.57;;;29.30;90.00;;;;;;4957541;28;20492;-67
2021/06/16 14:32:54;;;;;;;6.50;6.20;;;29.50;88.80;;;;;;4956565;28;20492;-68
2021/06/16 14:35:21;;;;;;;6.77;6.47;;;29.30;88.80;;;;;;4957082;28;20477;-67
2021/06/16 14:37:48;;;;;;;7.63;7.10;;;29.10;89.70;;;;;;4955857;28;20465;-67
2021/06/16 14:40:17;;;;;;;7.07;6.17;;;29.10;90.10;;;;;;4956509;28;20515;-67
2021/06/16 14:42:44;;;;;;;7.37;6.97;;;29.10;90.30;;;;;;4956364;28;20470;-68
2021/06/16 14:45:12;;;;;;;6.40;6.20;;;29.20;90.40;;;;;;4956822;28;20547;-68
2021/06/16 14:47:39;;;;;;;7.10;6.80;;;29.40;90.00;;;;;;4955898;28;20957;-68
2021/06/16 14:50:07;;;;;;;7.90;7.30;;;29.60;89.90;;;;;;4956788;28;20966;-68
2021/06/16 14:52:34;;;;;;;8.37;7.80;;;29.60;88.10;;;;;;4955036;28;20501;-68
2021/06/16 14:55:01;;;;;;;7.97;7.50;;;29.70;88.60;;;;;;4953068;28;20476;-68
2021/06/16 14:57:29;;;;;;;7.30;6.90;;;29.90;89.40;;;;;;4936911;28;20487;-68
2021/06/16 14:59:55;;;;;;;7.73;7.23;;;29.80;88.60;;;;;;4937152;29;20470;-68
2021/06/16 15:02:22;;;;;;;7.80;7.50;;;29.90;89.70;;;;;;4936577;29;20967;-68
2021/06/16 15:04:49;;;;;;;7.37;7.07;;;30.00;89.20;;;;;;4937246;29;20825;-68
2021/06/16 15:07:15;;;;;;;7.97;7.50;;;30.00;89.40;;;;;;4935983;29;20471;-68
2021/06/16 15:09:42;;;;;;;6.83;6.63;;;30.00;88.40;;;;;;4937370;28;20481;-68
2021/06/16 15:12:09;;;;;;;7.67;7.33;;;30.10;87.70;;;;;;4936581;29;21049;-66
2021/06/16 15:14:40;;;;;;;7.90;7.50;;;30.20;86.80;;;;;;4937010;29;20487;-67
2021/06/16 15:17:07;;;;;;;7.83;7.43;;;30.30;87.20;;;;;;4936801;29;20518;-68
2021/06/16 15:19:36;;;;;;;7.53;7.23;;;30.10;87.80;;;;;;4937354;28;20904;-67
2021/06/16 15:22:03;;;;;;;8.13;7.73;;;30.10;88.00;;;;;;4936675;29;20522;-68
2021/06/16 15:24:30;;;;;;;8.53;8.20;;;30.10;88.40;;;;;;4937469;29;20468;-67
2021/06/16 15:26:57;;;;;;;8.43;7.83;;;30.10;87.70;;;;;;4938957;29;20468;-69
2021/06/16 15:29:24;;;;;;;7.77;7.27;;;30.20;88.00;;;;;;4955685;28;20464;-67
2021/06/16 15:31:52;;;;;;;8.77;8.30;;;30.20;88.10;;;;;;4954975;28;20495;-67
2021/06/16 15:34:19;;;;;;;7.53;7.13;;;30.40;87.40;;;;;;4955716;28;20471;-67
2021/06/16 15:36:46;;;;;;;7.90;7.50;;;30.40;86.10;;;;;;4955073;28;20787;-67
2021/06/16 15:39:13;;;;;;;7.73;7.40;;;30.40;85.00;;;;;;4955042;28;20471;-68
2021/06/16 15:41:40;;;;;;;8.80;8.10;;;30.40;85.70;;;;;;4954900;28;21046;-68
2021/06/16 15:44:07;;;;;;;8.70;8.20;;;30.30;87.00;;;;;;4956105;28;20613;-68
2021/06/16 15:46:33;;;;;;;9.93;9.13;;;30.40;88.50;;;;;;4955228;28;20475;-68
2021/06/16 15:49:02;;;;;;;9.40;8.60;;;30.60;87.50;;;;;;4955799;28;20471;-68
2021/06/16 15:51:28;;;;;;;8.83;8.43;;;30.60;88.00;;;;;;4954617;28;20503;-68
2021/06/16 15:53:55;;;;;;;9.30;8.73;;;30.30;87.50;;;;;;4955842;28;20486;-68
2021/06/16 15:56:22;;;;;;;8.50;8.20;;;30.20;87.70;;;;;;4955339;28;20478;-68
2021/06/16 15:58:48;;;;;;;8.83;8.43;;;30.20;87.20;;;;;;4956091;28;20478;-69
2021/06/16 16:01:15;;;;;;;9.67;9.03;;;30.20;87.80;;;;;;4954968;28;20491;-68
2021/06/16 16:03:42;;;;;;;9.00;8.30;;;30.10;87.30;;;;;;4955622;28;20463;-68
2021/06/16 16:06:10;;;;;;;9.10;8.50;;;30.10;88.00;;;;;;4954813;28;20479;-68
2021/06/16 16:08:38;;;;;;;8.40;8.00;;;30.00;88.80;;;;;;4955862;28;20575;-68
2021/06/16 16:11:05;;;;;;;8.30;7.80;;;30.00;88.80;;;;;;4955360;28;20505;-68
2021/06/16 16:13:32;;;;;;;9.10;8.60;;;29.80;89.80;;;;;;4944620;28;20496;-68
2021/06/16 16:15:59;;;;;;;9.20;8.50;;;29.70;89.70;;;;;;4938436;29;20472;-68
2021/06/16 16:18:26;;;;;;;8.87;8.47;;;29.80;90.20;;;;;;4940990;29;20828;-67
2021/06/16 16:20:54;;;;;;;9.87;9.37;;;29.90;89.40;;;;;;4934338;29;20494;-68
2021/06/16 16:23:22;;;;;;;9.60;8.90;;;29.90;89.00;;;;;;4935640;29;20467;-67
2021/06/16 16:25:49;;;;;;;9.50;9.10;;;29.80;90.20;;;;;;4935932;28;20837;-68
2021/06/16 16:28:16;;;;;;;10.13;9.53;;;29.70;89.60;;;;;;4937054;29;20463;-67
2021/06/16 16:30:45;;;;;;;9.47;8.97;;;29.60;90.10;;;;;;4935827;29;20562;-66
2021/06/16 16:33:12;;;;;;;8.80;8.40;;;29.70;89.90;;;;;;4936214;29;20676;-67
2021/06/16 16:35:39;;;;;;;8.43;7.93;;;29.70;89.90;;;;;;4935868;29;20477;-68
2021/06/16 16:38:06;;;;;;;9.13;8.73;;;29.80;89.00;;;;;;4935187;29;20483;-67
2021/06/16 16:40:36;;;;;;;10.70;10.00;;;29.80;89.90;;;;;;4935710;29;20490;-67
2021/06/16 16:43:03;;;;;;;10.20;9.30;;;29.90;89.40;;;;;;4935498;29;20464;-68
2021/06/16 16:45:30;;;;;;;11.30;10.60;;;29.80;89.10;;;;;;4936436;29;20472;-67
2021/06/16 16:47:57;;;;;;;9.77;9.03;;;29.60;89.10;;;;;;4936367;29;20467;-67
2021/06/16 16:50:24;;;;;;;10.50;9.70;;;29.60;89.50;;;;;;4936818;28;20880;-67
2021/06/16 16:52:51;;;;;;;10.20;9.60;;;29.60;90.20;;;;;;4935512;29;20495;-67
2021/06/16 16:55:19;;;;;;;10.33;9.73;;;29.50;89.30;;;;;;4936475;29;20490;-67
2021/06/16 16:57:48;;;;;;;9.00;8.60;;;29.50;89.80;;;;;;4936263;29;20546;-68